sensor_id;sensor_type;location;lat;lon;timestamp;P1;durP1;ratioP1;P2;durP2;ratioP2
34541;SDS011;20784;51.332;12.410;2024-02-14T00:00:28;8.90;;;3.75;;
34541;SDS011;20784;51.332;12.410;2024-02-14T00:02:53;6.90;;;3.85;;
34541;SDS011;20784;51.332;12.410;2024-02-14T00:05:19;6.70;;;4.28;;
34541;SDS011;20784;51.332;12.410;2024-02-14T00:07:44;7.95;;;4.07;;
34541;SDS011;20784;51.332;12.410;2024-02-14T00:10:10;8.90;;;4.03;;
34541;SDS011;20784;51.332;12.410;2024-02-14T00:12:38;7.45;;;4.13;;
34541;SDS011;20784;51.332;12.410;2024-02-14T00:15:11;8.82;;;3.30;;
34541;SDS011;20784;51.332;12.410;2024-02-14T00:17:41;6.00;;;4.03;;
34541;SDS011;20784;51.332;12.410;2024-02-14T00:20:08;6.88;;;3.72;;
34541;SDS011;20784;51.332;12.410;2024-02-14T00:22:37;6.97;;;3.47;;
34541;SDS011;20784;51.332;12.410;2024-02-14T00:25:06;8.57;;;3.60;;
34541;SDS011;20784;51.332;12.410;2024-02-14T00:27:32;5.72;;;3.78;;
34541;SDS011;20784;51.332;12.410;2024-02-14T00:29:58;6.78;;;3.67;;
34541;SDS011;20784;51.332;12.410;2024-02-14T00:32:24;8.93;;;4.05;;
34541;SDS011;20784;51.332;12.410;2024-02-14T00:34:49;7.03;;;3.88;;
34541;SDS011;20784;51.332;12.410;2024-02-14T00:37:15;7.35;;;3.40;;
34541;SDS011;20784;51.332;12.410;2024-02-14T00:39:41;7.40;;;3.88;;
34541;SDS011;20784;51.332;12.410;2024-02-14T00:42:06;6.07;;;3.85;;
34541;SDS011;20784;51.332;12.410;2024-02-14T00:44:35;12.35;;;3.70;;
34541;SDS011;20784;51.332;12.410;2024-02-14T00:47:01;7.15;;;3.60;;
34541;SDS011;20784;51.332;12.410;2024-02-14T00:49:27;5.38;;;3.33;;
34541;SDS011;20784;51.332;12.410;2024-02-14T00:51:53;9.02;;;3.78;;
34541;SDS011;20784;51.332;12.410;2024-02-14T00:54:19;7.47;;;3.85;;
34541;SDS011;20784;51.332;12.410;2024-02-14T00:56:45;7.63;;;3.40;;
34541;SDS011;20784;51.332;12.410;2024-02-14T00:59:11;7.10;;;3.45;;
34541;SDS011;20784;51.332;12.410;2024-02-14T01:01:36;7.88;;;3.38;;
34541;SDS011;20784;51.332;12.410;2024-02-14T01:04:03;6.03;;;3.70;;
34541;SDS011;20784;51.332;12.410;2024-02-14T01:06:29;11.55;;;3.45;;
34541;SDS011;20784;51.332;12.410;2024-02-14T01:08:55;9.35;;;3.35;;
34541;SDS011;20784;51.332;12.410;2024-02-14T01:11:21;6.22;;;3.22;;
34541;SDS011;20784;51.332;12.410;2024-02-14T01:13:47;7.68;;;3.38;;
34541;SDS011;20784;51.332;12.410;2024-02-14T01:16:12;7.13;;;3.45;;
34541;SDS011;20784;51.332;12.410;2024-02-14T01:18:38;5.78;;;3.22;;
34541;SDS011;20784;51.332;12.410;2024-02-14T01:21:06;8.30;;;3.38;;
34541;SDS011;20784;51.332;12.410;2024-02-14T01:23:32;6.60;;;3.53;;
34541;SDS011;20784;51.332;12.410;2024-02-14T01:25:57;6.07;;;2.90;;
34541;SDS011;20784;51.332;12.410;2024-02-14T01:28:23;7.30;;;3.13;;
34541;SDS011;20784;51.332;12.410;2024-02-14T01:30:48;7.93;;;3.10;;
34541;SDS011;20784;51.332;12.410;2024-02-14T01:33:15;7.32;;;3.55;;
34541;SDS011;20784;51.332;12.410;2024-02-14T01:35:41;5.57;;;3.10;;
34541;SDS011;20784;51.332;12.410;2024-02-14T01:38:07;4.88;;;2.80;;
34541;SDS011;20784;51.332;12.410;2024-02-14T01:40:33;12.23;;;3.50;;
34541;SDS011;20784;51.332;12.410;2024-02-14T01:42:58;9.55;;;3.00;;
34541;SDS011;20784;51.332;12.410;2024-02-14T01:45:24;7.57;;;3.30;;
34541;SDS011;20784;51.332;12.410;2024-02-14T01:47:49;8.32;;;2.90;;
34541;SDS011;20784;51.332;12.410;2024-02-14T01:50:16;5.75;;;3.20;;
34541;SDS011;20784;51.332;12.410;2024-02-14T01:52:43;3.67;;;2.67;;
34541;SDS011;20784;51.332;12.410;2024-02-14T01:55:09;8.98;;;3.25;;
34541;SDS011;20784;51.332;12.410;2024-02-14T01:57:37;5.63;;;3.10;;
34541;SDS011;20784;51.332;12.410;2024-02-14T02:00:04;5.00;;;2.83;;
34541;SDS011;20784;51.332;12.410;2024-02-14T02:02:33;6.43;;;3.15;;
34541;SDS011;20784;51.332;12.410;2024-02-14T02:05:02;8.70;;;3.20;;
34541;SDS011;20784;51.332;12.410;2024-02-14T02:07:27;7.22;;;3.38;;
34541;SDS011;20784;51.332;12.410;2024-02-14T02:09:53;5.57;;;3.05;;
34541;SDS011;20784;51.332;12.410;2024-02-14T02:12:26;8.85;;;4.22;;
34541;SDS011;20784;51.332;12.410;2024-02-14T02:14:52;3.40;;;2.42;;
34541;SDS011;20784;51.332;12.410;2024-02-14T02:17:18;10.48;;;3.50;;
34541;SDS011;20784;51.332;12.410;2024-02-14T02:19:44;6.47;;;3.83;;
34541;SDS011;20784;51.332;12.410;2024-02-14T02:22:09;5.53;;;2.80;;
34541;SDS011;20784;51.332;12.410;2024-02-14T02:24:35;8.68;;;3.10;;
34541;SDS011;20784;51.332;12.410;2024-02-14T02:27:01;5.40;;;2.58;;
34541;SDS011;20784;51.332;12.410;2024-02-14T02:29:29;5.80;;;3.08;;
34541;SDS011;20784;51.332;12.410;2024-02-14T02:31:57;5.22;;;2.97;;
34541;SDS011;20784;51.332;12.410;2024-02-14T02:34:23;6.30;;;3.42;;
34541;SDS011;20784;51.332;12.410;2024-02-14T02:36:51;6.97;;;3.10;;
34541;SDS011;20784;51.332;12.410;2024-02-14T02:39:16;6.45;;;3.17;;
34541;SDS011;20784;51.332;12.410;2024-02-14T02:41:42;5.75;;;2.95;;
34541;SDS011;20784;51.332;12.410;2024-02-14T02:44:10;7.75;;;3.53;;
34541;SDS011;20784;51.332;12.410;2024-02-14T02:46:36;6.80;;;3.20;;
34541;SDS011;20784;51.332;12.410;2024-02-14T02:49:01;4.53;;;2.92;;
34541;SDS011;20784;51.332;12.410;2024-02-14T02:51:27;6.82;;;3.10;;
34541;SDS011;20784;51.332;12.410;2024-02-14T02:53:52;5.50;;;2.88;;
34541;SDS011;20784;51.332;12.410;2024-02-14T02:56:18;8.00;;;3.30;;
34541;SDS011;20784;51.332;12.410;2024-02-14T02:58:44;4.03;;;3.00;;
34541;SDS011;20784;51.332;12.410;2024-02-14T03:01:10;4.93;;;3.15;;
34541;SDS011;20784;51.332;12.410;2024-02-14T03:03:37;6.03;;;3.00;;
34541;SDS011;20784;51.332;12.410;2024-02-14T03:06:03;3.83;;;2.72;;
34541;SDS011;20784;51.332;12.410;2024-02-14T03:08:30;6.78;;;2.90;;
34541;SDS011;20784;51.332;12.410;2024-02-14T03:10:56;6.45;;;2.60;;
34541;SDS011;20784;51.332;12.410;2024-02-14T03:13:27;5.65;;;2.92;;
34541;SDS011;20784;51.332;12.410;2024-02-14T03:15:53;5.82;;;2.75;;
34541;SDS011;20784;51.332;12.410;2024-02-14T03:18:23;3.90;;;2.45;;
34541;SDS011;20784;51.332;12.410;2024-02-14T03:20:49;6.30;;;2.72;;
34541;SDS011;20784;51.332;12.410;2024-02-14T03:23:15;4.15;;;2.60;;
34541;SDS011;20784;51.332;12.410;2024-02-14T03:25:41;7.13;;;2.72;;
34541;SDS011;20784;51.332;12.410;2024-02-14T03:28:09;4.28;;;2.60;;
34541;SDS011;20784;51.332;12.410;2024-02-14T03:30:34;7.95;;;3.00;;
34541;SDS011;20784;51.332;12.410;2024-02-14T03:33:01;7.47;;;2.80;;
34541;SDS011;20784;51.332;12.410;2024-02-14T03:35:28;8.57;;;2.70;;
34541;SDS011;20784;51.332;12.410;2024-02-14T03:37:53;6.57;;;2.90;;
34541;SDS011;20784;51.332;12.410;2024-02-14T03:40:19;8.35;;;2.28;;
34541;SDS011;20784;51.332;12.410;2024-02-14T03:42:47;3.83;;;2.33;;
34541;SDS011;20784;51.332;12.410;2024-02-14T03:45:16;5.15;;;2.30;;
34541;SDS011;20784;51.332;12.410;2024-02-14T03:47:41;6.18;;;2.63;;
34541;SDS011;20784;51.332;12.410;2024-02-14T03:50:07;4.53;;;2.35;;
34541;SDS011;20784;51.332;12.410;2024-02-14T03:52:33;4.72;;;2.20;;
34541;SDS011;20784;51.332;12.410;2024-02-14T03:54:59;5.15;;;2.38;;
34541;SDS011;20784;51.332;12.410;2024-02-14T03:57:25;4.78;;;2.33;;
34541;SDS011;20784;51.332;12.410;2024-02-14T03:59:53;4.82;;;2.70;;
34541;SDS011;20784;51.332;12.410;2024-02-14T04:02:24;4.70;;;2.22;;
34541;SDS011;20784;51.332;12.410;2024-02-14T04:04:52;6.88;;;2.50;;
34541;SDS011;20784;51.332;12.410;2024-02-14T04:07:18;6.78;;;2.55;;
34541;SDS011;20784;51.332;12.410;2024-02-14T04:09:44;3.78;;;2.20;;
34541;SDS011;20784;51.332;12.410;2024-02-14T04:12:09;10.05;;;2.63;;
34541;SDS011;20784;51.332;12.410;2024-02-14T04:14:35;5.25;;;2.17;;
34541;SDS011;20784;51.332;12.410;2024-02-14T04:17:02;3.30;;;2.05;;
34541;SDS011;20784;51.332;12.410;2024-02-14T04:19:29;7.10;;;2.00;;
34541;SDS011;20784;51.332;12.410;2024-02-14T04:21:55;4.60;;;1.83;;
34541;SDS011;20784;51.332;12.410;2024-02-14T04:24:26;3.78;;;1.90;;
34541;SDS011;20784;51.332;12.410;2024-02-14T04:26:55;5.70;;;1.73;;
34541;SDS011;20784;51.332;12.410;2024-02-14T04:29:37;3.45;;;1.90;;
34541;SDS011;20784;51.332;12.410;2024-02-14T04:32:44;4.00;;;1.90;;
34541;SDS011;20784;51.332;12.410;2024-02-14T04:35:10;4.53;;;2.03;;
34541;SDS011;20784;51.332;12.410;2024-02-14T04:38:04;6.60;;;2.13;;
34541;SDS011;20784;51.332;12.410;2024-02-14T04:43:57;4.85;;;1.90;;
34541;SDS011;20784;51.332;12.410;2024-02-14T04:47:05;6.00;;;1.40;;
34541;SDS011;20784;51.332;12.410;2024-02-14T04:53:21;2.55;;;1.50;;
34541;SDS011;20784;51.332;12.410;2024-02-14T05:16:12;2.25;;;1.50;;
34541;SDS011;20784;51.332;12.410;2024-02-14T05:19:35;3.28;;;1.70;;
34541;SDS011;20784;51.332;12.410;2024-02-14T05:22:41;1.73;;;1.50;;
34541;SDS011;20784;51.332;12.410;2024-02-14T05:26:07;4.07;;;1.50;;
34541;SDS011;20784;51.332;12.410;2024-02-14T05:29:30;3.60;;;1.60;;
34541;SDS011;20784;51.332;12.410;2024-02-14T05:36:19;3.70;;;1.20;;
34541;SDS011;20784;51.332;12.410;2024-02-14T05:40:08;2.58;;;1.60;;
34541;SDS011;20784;51.332;12.410;2024-02-14T05:43:06;3.47;;;1.10;;
34541;SDS011;20784;51.332;12.410;2024-02-14T05:46:20;5.38;;;1.50;;
34541;SDS011;20784;51.332;12.410;2024-02-14T05:52:22;4.45;;;1.20;;
34541;SDS011;20784;51.332;12.410;2024-02-14T05:55:33;12.23;;;4.75;;
34541;SDS011;20784;51.332;12.410;2024-02-14T05:58:43;3.55;;;1.88;;
34541;SDS011;20784;51.332;12.410;2024-02-14T06:01:24;4.85;;;2.15;;
34541;SDS011;20784;51.332;12.410;2024-02-14T06:04:03;5.25;;;2.63;;
34541;SDS011;20784;51.332;12.410;2024-02-14T06:11:10;3.78;;;1.50;;
34541;SDS011;20784;51.332;12.410;2024-02-14T06:13:49;3.30;;;1.55;;
34541;SDS011;20784;51.332;12.410;2024-02-14T06:16:23;3.08;;;1.48;;
34541;SDS011;20784;51.332;12.410;2024-02-14T06:22:11;3.60;;;1.23;;
34541;SDS011;20784;51.332;12.410;2024-02-14T06:35:07;3.05;;;1.60;;
34541;SDS011;20784;51.332;12.410;2024-02-14T06:41:46;2.25;;;0.95;;
34541;SDS011;20784;51.332;12.410;2024-02-14T06:45:16;3.45;;;1.38;;
34541;SDS011;20784;51.332;12.410;2024-02-14T06:48:21;5.38;;;1.85;;
34541;SDS011;20784;51.332;12.410;2024-02-14T06:52:03;3.13;;;1.50;;
34541;SDS011;20784;51.332;12.410;2024-02-14T06:54:42;3.95;;;1.80;;
34541;SDS011;20784;51.332;12.410;2024-02-14T06:57:19;4.00;;;1.60;;
34541;SDS011;20784;51.332;12.410;2024-02-14T06:59:49;5.18;;;1.58;;
34541;SDS011;20784;51.332;12.410;2024-02-14T07:02:30;5.68;;;1.67;;
34541;SDS011;20784;51.332;12.410;2024-02-14T07:04:59;4.38;;;1.73;;
34541;SDS011;20784;51.332;12.410;2024-02-14T07:07:47;2.55;;;1.05;;
34541;SDS011;20784;51.332;12.410;2024-02-14T07:10:20;2.75;;;1.55;;
34541;SDS011;20784;51.332;12.410;2024-02-14T07:13:05;5.35;;;2.55;;
34541;SDS011;20784;51.332;12.410;2024-02-14T07:16:05;2.67;;;1.60;;
34541;SDS011;20784;51.332;12.410;2024-02-14T07:19:02;5.25;;;2.17;;
34541;SDS011;20784;51.332;12.410;2024-02-14T07:22:14;6.30;;;1.60;;
34541;SDS011;20784;51.332;12.410;2024-02-14T07:25:16;4.03;;;1.77;;
34541;SDS011;20784;51.332;12.410;2024-02-14T07:28:22;3.03;;;1.60;;
34541;SDS011;20784;51.332;12.410;2024-02-14T07:31:28;4.60;;;1.90;;
34541;SDS011;20784;51.332;12.410;2024-02-14T07:41:08;3.45;;;1.63;;
34541;SDS011;20784;51.332;12.410;2024-02-14T07:46:57;5.82;;;2.17;;
34541;SDS011;20784;51.332;12.410;2024-02-14T07:49:57;7.10;;;1.95;;
34541;SDS011;20784;51.332;12.410;2024-02-14T07:52:31;6.57;;;1.80;;
34541;SDS011;20784;51.332;12.410;2024-02-14T07:55:31;4.47;;;1.80;;
34541;SDS011;20784;51.332;12.410;2024-02-14T07:58:12;5.30;;;1.67;;
34541;SDS011;20784;51.332;12.410;2024-02-14T08:00:58;5.80;;;1.65;;
34541;SDS011;20784;51.332;12.410;2024-02-14T08:03:31;9.47;;;1.80;;
34541;SDS011;20784;51.332;12.410;2024-02-14T08:12:10;2.78;;;1.38;;
34541;SDS011;20784;51.332;12.410;2024-02-14T08:14:36;6.70;;;1.88;;
34541;SDS011;20784;51.332;12.410;2024-02-14T08:17:38;6.20;;;2.50;;
34541;SDS011;20784;51.332;12.410;2024-02-14T08:20:27;5.18;;;2.10;;
34541;SDS011;20784;51.332;12.410;2024-02-14T08:23:32;4.95;;;1.63;;
34541;SDS011;20784;51.332;12.410;2024-02-14T08:26:50;5.15;;;1.90;;
34541;SDS011;20784;51.332;12.410;2024-02-14T08:29:56;4.35;;;1.58;;
34541;SDS011;20784;51.332;12.410;2024-02-14T08:32:35;4.80;;;1.83;;
34541;SDS011;20784;51.332;12.410;2024-02-14T08:35:12;8.30;;;1.95;;
34541;SDS011;20784;51.332;12.410;2024-02-14T08:40:24;2.67;;;1.50;;
34541;SDS011;20784;51.332;12.410;2024-02-14T08:43:03;4.35;;;2.63;;
34541;SDS011;20784;51.332;12.410;2024-02-14T08:57:21;4.93;;;1.95;;
34541;SDS011;20784;51.332;12.410;2024-02-14T08:59:58;4.45;;;1.95;;
34541;SDS011;20784;51.332;12.410;2024-02-14T09:02:36;9.40;;;1.65;;
34541;SDS011;20784;51.332;12.410;2024-02-14T09:05:30;8.82;;;1.58;;
34541;SDS011;20784;51.332;12.410;2024-02-14T09:08:11;3.40;;;1.50;;
34541;SDS011;20784;51.332;12.410;2024-02-14T09:13:24;7.70;;;1.83;;
34541;SDS011;20784;51.332;12.410;2024-02-14T09:16:21;4.70;;;1.40;;
34541;SDS011;20784;51.332;12.410;2024-02-14T09:34:21;4.07;;;1.60;;
34541;SDS011;20784;51.332;12.410;2024-02-14T09:36:47;5.47;;;1.65;;
34541;SDS011;20784;51.332;12.410;2024-02-14T09:39:43;4.72;;;1.27;;
34541;SDS011;20784;51.332;12.410;2024-02-14T09:42:19;1.98;;;1.40;;
34541;SDS011;20784;51.332;12.410;2024-02-14T09:45:38;5.72;;;1.60;;
34541;SDS011;20784;51.332;12.410;2024-02-14T09:49:01;3.65;;;1.60;;
34541;SDS011;20784;51.332;12.410;2024-02-14T09:52:21;5.18;;;1.42;;
34541;SDS011;20784;51.332;12.410;2024-02-14T09:55:15;4.15;;;1.85;;
34541;SDS011;20784;51.332;12.410;2024-02-14T09:58:09;4.85;;;1.30;;
34541;SDS011;20784;51.332;12.410;2024-02-14T10:01:17;3.05;;;1.42;;
34541;SDS011;20784;51.332;12.410;2024-02-14T10:04:31;2.58;;;1.35;;
34541;SDS011;20784;51.332;12.410;2024-02-14T10:18:10;3.03;;;1.25;;
34541;SDS011;20784;51.332;12.410;2024-02-14T10:24:07;3.72;;;1.52;;
34541;SDS011;20784;51.332;12.410;2024-02-14T10:26:44;3.65;;;1.60;;
34541;SDS011;20784;51.332;12.410;2024-02-14T10:29:16;3.00;;;1.45;;
34541;SDS011;20784;51.332;12.410;2024-02-14T10:32:07;2.33;;;1.30;;
34541;SDS011;20784;51.332;12.410;2024-02-14T10:41:42;7.10;;;2.10;;
34541;SDS011;20784;51.332;12.410;2024-02-14T10:44:31;2.17;;;1.45;;
34541;SDS011;20784;51.332;12.410;2024-02-14T10:51:13;9.23;;;1.80;;
34541;SDS011;20784;51.332;12.410;2024-02-14T11:00:45;5.18;;;1.45;;
34541;SDS011;20784;51.332;12.410;2024-02-14T11:04:30;2.72;;;1.42;;
34541;SDS011;20784;51.332;12.410;2024-02-14T11:07:34;6.28;;;1.63;;
34541;SDS011;20784;51.332;12.410;2024-02-14T11:34:05;1.90;;;1.35;;
34541;SDS011;20784;51.332;12.410;2024-02-14T11:43:50;5.05;;;1.80;;
34541;SDS011;20784;51.332;12.410;2024-02-14T11:46:57;3.75;;;1.60;;
34541;SDS011;20784;51.332;12.410;2024-02-14T12:00:06;3.92;;;1.40;;
34541;SDS011;20784;51.332;12.410;2024-02-14T12:02:58;4.45;;;1.60;;
34541;SDS011;20784;51.332;12.410;2024-02-14T12:05:24;3.65;;;2.15;;
34541;SDS011;20784;51.332;12.410;2024-02-14T12:08:31;5.55;;;1.60;;
34541;SDS011;20784;51.332;12.410;2024-02-14T12:11:20;2.20;;;1.50;;
34541;SDS011;20784;51.332;12.410;2024-02-14T12:14:17;2.92;;;1.50;;
34541;SDS011;20784;51.332;12.410;2024-02-14T12:17:28;2.67;;;1.25;;
34541;SDS011;20784;51.332;12.410;2024-02-14T12:20:32;2.65;;;1.38;;
34541;SDS011;20784;51.332;12.410;2024-02-14T12:30:09;2.33;;;1.45;;
34541;SDS011;20784;51.332;12.410;2024-02-14T12:37:01;2.42;;;1.35;;
34541;SDS011;20784;51.332;12.410;2024-02-14T12:46:10;1.88;;;1.30;;
34541;SDS011;20784;51.332;12.410;2024-02-14T12:49:06;1.73;;;1.00;;
34541;SDS011;20784;51.332;12.410;2024-02-14T12:51:52;1.75;;;1.23;;
34541;SDS011;20784;51.332;12.410;2024-02-14T12:54:25;4.45;;;1.20;;
34541;SDS011;20784;51.332;12.410;2024-02-14T12:57:14;1.40;;;1.10;;
34541;SDS011;20784;51.332;12.410;2024-02-14T13:02:38;2.17;;;1.08;;
34541;SDS011;20784;51.332;12.410;2024-02-14T13:05:13;2.65;;;1.15;;
34541;SDS011;20784;51.332;12.410;2024-02-14T13:07:39;5.05;;;1.25;;
34541;SDS011;20784;51.332;12.410;2024-02-14T13:10:22;1.95;;;1.50;;
34541;SDS011;20784;51.332;12.410;2024-02-14T13:13:01;1.38;;;0.90;;
34541;SDS011;20784;51.332;12.410;2024-02-14T13:15:38;2.13;;;1.27;;
34541;SDS011;20784;51.332;12.410;2024-02-14T13:18:26;1.83;;;1.00;;
34541;SDS011;20784;51.332;12.410;2024-02-14T13:20:54;2.17;;;1.13;;
34541;SDS011;20784;51.332;12.410;2024-02-14T13:23:25;3.50;;;1.33;;
34541;SDS011;20784;51.332;12.410;2024-02-14T13:26:04;1.85;;;1.20;;
34541;SDS011;20784;51.332;12.410;2024-02-14T13:35:16;3.03;;;1.25;;
34541;SDS011;20784;51.332;12.410;2024-02-14T13:38:16;1.35;;;0.93;;
34541;SDS011;20784;51.332;12.410;2024-02-14T13:40:42;3.97;;;1.33;;
34541;SDS011;20784;51.332;12.410;2024-02-14T13:43:08;2.45;;;1.25;;
34541;SDS011;20784;51.332;12.410;2024-02-14T13:45:48;5.07;;;1.20;;
34541;SDS011;20784;51.332;12.410;2024-02-14T13:48:15;2.40;;;1.20;;
34541;SDS011;20784;51.332;12.410;2024-02-14T13:50:58;1.83;;;1.15;;
34541;SDS011;20784;51.332;12.410;2024-02-14T13:53:26;4.45;;;1.98;;
34541;SDS011;20784;51.332;12.410;2024-02-14T13:55:54;1.98;;;1.02;;
34541;SDS011;20784;51.332;12.410;2024-02-14T13:58:21;1.75;;;1.20;;
34541;SDS011;20784;51.332;12.410;2024-02-14T14:00:52;3.70;;;1.30;;
34541;SDS011;20784;51.332;12.410;2024-02-14T14:03:28;3.17;;;1.25;;
34541;SDS011;20784;51.332;12.410;2024-02-14T14:05:57;2.85;;;1.45;;
34541;SDS011;20784;51.332;12.410;2024-02-14T14:08:34;3.88;;;1.33;;
34541;SDS011;20784;51.332;12.410;2024-02-14T14:11:02;2.35;;;1.02;;
34541;SDS011;20784;51.332;12.410;2024-02-14T14:13:37;4.35;;;1.60;;
34541;SDS011;20784;51.332;12.410;2024-02-14T14:16:03;2.50;;;1.30;;
34541;SDS011;20784;51.332;12.410;2024-02-14T14:18:34;1.60;;;1.10;;
34541;SDS011;20784;51.332;12.410;2024-02-14T14:21:06;2.08;;;1.27;;
34541;SDS011;20784;51.332;12.410;2024-02-14T14:23:34;4.63;;;1.60;;
34541;SDS011;20784;51.332;12.410;2024-02-14T14:26:13;2.55;;;1.48;;
34541;SDS011;20784;51.332;12.410;2024-02-14T14:28:40;3.83;;;1.55;;
34541;SDS011;20784;51.332;12.410;2024-02-14T14:31:07;1.92;;;1.20;;
34541;SDS011;20784;51.332;12.410;2024-02-14T14:33:36;3.63;;;1.20;;
34541;SDS011;20784;51.332;12.410;2024-02-14T14:36:03;1.38;;;1.10;;
34541;SDS011;20784;51.332;12.410;2024-02-14T14:38:29;1.83;;;1.40;;
34541;SDS011;20784;51.332;12.410;2024-02-14T14:40:58;4.50;;;1.30;;
34541;SDS011;20784;51.332;12.410;2024-02-14T14:43:24;4.68;;;1.40;;
34541;SDS011;20784;51.332;12.410;2024-02-14T14:45:50;2.83;;;1.40;;
34541;SDS011;20784;51.332;12.410;2024-02-14T14:48:20;1.42;;;1.05;;
34541;SDS011;20784;51.332;12.410;2024-02-14T14:50:47;2.60;;;1.20;;
34541;SDS011;20784;51.332;12.410;2024-02-14T14:53:18;3.47;;;1.63;;
34541;SDS011;20784;51.332;12.410;2024-02-14T14:55:58;6.05;;;1.95;;
34541;SDS011;20784;51.332;12.410;2024-02-14T14:58:26;4.22;;;1.70;;
34541;SDS011;20784;51.332;12.410;2024-02-14T15:00:55;1.40;;;1.10;;
34541;SDS011;20784;51.332;12.410;2024-02-14T15:03:31;1.67;;;1.20;;
34541;SDS011;20784;51.332;12.410;2024-02-14T15:05:56;2.67;;;1.35;;
34541;SDS011;20784;51.332;12.410;2024-02-14T15:08:25;2.00;;;1.50;;
34541;SDS011;20784;51.332;12.410;2024-02-14T15:10:56;4.80;;;1.55;;
34541;SDS011;20784;51.332;12.410;2024-02-14T15:13:24;2.60;;;1.58;;
34541;SDS011;20784;51.332;12.410;2024-02-14T15:15:55;3.10;;;1.65;;
34541;SDS011;20784;51.332;12.410;2024-02-14T15:18:22;2.72;;;1.85;;
34541;SDS011;20784;51.332;12.410;2024-02-14T15:20:48;5.53;;;1.40;;
34541;SDS011;20784;51.332;12.410;2024-02-14T15:23:14;5.10;;;1.48;;
34541;SDS011;20784;51.332;12.410;2024-02-14T15:25:49;1.75;;;1.40;;
34541;SDS011;20784;51.332;12.410;2024-02-14T15:28:29;2.78;;;1.50;;
34541;SDS011;20784;51.332;12.410;2024-02-14T15:30:58;4.18;;;1.73;;
34541;SDS011;20784;51.332;12.410;2024-02-14T15:34:03;5.32;;;1.58;;
34541;SDS011;20784;51.332;12.410;2024-02-14T15:36:32;3.15;;;1.67;;
34541;SDS011;20784;51.332;12.410;2024-02-14T15:38:57;2.22;;;1.55;;
34541;SDS011;20784;51.332;12.410;2024-02-14T15:41:25;2.80;;;1.67;;
34541;SDS011;20784;51.332;12.410;2024-02-14T15:43:50;7.80;;;3.80;;
34541;SDS011;20784;51.332;12.410;2024-02-14T15:48:47;3.80;;;1.83;;
34541;SDS011;20784;51.332;12.410;2024-02-14T15:51:13;3.70;;;1.52;;
34541;SDS011;20784;51.332;12.410;2024-02-14T15:53:48;15.75;;;9.52;;
34541;SDS011;20784;51.332;12.410;2024-02-14T15:56:29;7.38;;;3.88;;
34541;SDS011;20784;51.332;12.410;2024-02-14T15:58:57;3.70;;;1.70;;
34541;SDS011;20784;51.332;12.410;2024-02-14T16:01:29;3.17;;;1.95;;
34541;SDS011;20784;51.332;12.410;2024-02-14T16:04:12;4.05;;;1.83;;
34541;SDS011;20784;51.332;12.410;2024-02-14T16:06:38;5.05;;;2.33;;
34541;SDS011;20784;51.332;12.410;2024-02-14T16:09:04;10.65;;;6.57;;
34541;SDS011;20784;51.332;12.410;2024-02-14T16:11:33;5.03;;;2.30;;
34541;SDS011;20784;51.332;12.410;2024-02-14T16:13:58;2.47;;;1.60;;
34541;SDS011;20784;51.332;12.410;2024-02-14T16:16:29;5.80;;;2.15;;
34541;SDS011;20784;51.332;12.410;2024-02-14T16:19:18;3.97;;;1.90;;
34541;SDS011;20784;51.332;12.410;2024-02-14T16:22:04;3.33;;;2.00;;
34541;SDS011;20784;51.332;12.410;2024-02-14T16:24:49;2.95;;;1.73;;
34541;SDS011;20784;51.332;12.410;2024-02-14T16:27:16;2.85;;;1.80;;
34541;SDS011;20784;51.332;12.410;2024-02-14T16:29:44;2.70;;;1.88;;
34541;SDS011;20784;51.332;12.410;2024-02-14T16:32:22;12.75;;;7.47;;
34541;SDS011;20784;51.332;12.410;2024-02-14T16:34:55;13.10;;;7.40;;
34541;SDS011;20784;51.332;12.410;2024-02-14T16:37:23;4.00;;;1.73;;
34541;SDS011;20784;51.332;12.410;2024-02-14T16:39:49;4.35;;;1.80;;
34541;SDS011;20784;51.332;12.410;2024-02-14T16:42:17;3.30;;;1.92;;
34541;SDS011;20784;51.332;12.410;2024-02-14T16:45:14;3.15;;;2.13;;
34541;SDS011;20784;51.332;12.410;2024-02-14T16:47:45;8.90;;;2.30;;
34541;SDS011;20784;51.332;12.410;2024-02-14T16:50:20;3.17;;;1.83;;
34541;SDS011;20784;51.332;12.410;2024-02-14T16:52:56;3.45;;;2.40;;
34541;SDS011;20784;51.332;12.410;2024-02-14T16:55:41;4.25;;;2.20;;
34541;SDS011;20784;51.332;12.410;2024-02-14T16:58:21;3.60;;;2.28;;
34541;SDS011;20784;51.332;12.410;2024-02-14T17:00:54;8.13;;;2.47;;
34541;SDS011;20784;51.332;12.410;2024-02-14T17:03:37;4.20;;;2.53;;
34541;SDS011;20784;51.332;12.410;2024-02-14T17:09:07;4.82;;;2.83;;
34541;SDS011;20784;51.332;12.410;2024-02-14T17:11:46;3.13;;;2.20;;
34541;SDS011;20784;51.332;12.410;2024-02-14T17:14:18;4.10;;;2.90;;
34541;SDS011;20784;51.332;12.410;2024-02-14T17:16:44;12.55;;;6.07;;
34541;SDS011;20784;51.332;12.410;2024-02-14T17:19:12;10.80;;;4.82;;
34541;SDS011;20784;51.332;12.410;2024-02-14T17:21:45;4.38;;;2.25;;
34541;SDS011;20784;51.332;12.410;2024-02-14T17:24:16;3.50;;;2.10;;
34541;SDS011;20784;51.332;12.410;2024-02-14T17:26:51;5.43;;;3.40;;
34541;SDS011;20784;51.332;12.410;2024-02-14T17:29:19;5.60;;;3.45;;
34541;SDS011;20784;51.332;12.410;2024-02-14T17:31:49;3.50;;;2.28;;
34541;SDS011;20784;51.332;12.410;2024-02-14T17:34:16;2.45;;;2.20;;
34541;SDS011;20784;51.332;12.410;2024-02-14T17:36:41;6.18;;;2.60;;
34541;SDS011;20784;51.332;12.410;2024-02-14T17:39:17;3.83;;;2.38;;
34541;SDS011;20784;51.332;12.410;2024-02-14T17:42:03;4.07;;;2.47;;
34541;SDS011;20784;51.332;12.410;2024-02-14T17:44:28;3.63;;;2.50;;
34541;SDS011;20784;51.332;12.410;2024-02-14T17:46:54;5.70;;;2.67;;
34541;SDS011;20784;51.332;12.410;2024-02-14T17:49:22;4.15;;;2.28;;
34541;SDS011;20784;51.332;12.410;2024-02-14T17:51:48;5.50;;;2.30;;
34541;SDS011;20784;51.332;12.410;2024-02-14T17:54:14;4.22;;;2.45;;
34541;SDS011;20784;51.332;12.410;2024-02-14T17:56:40;4.65;;;2.03;;
34541;SDS011;20784;51.332;12.410;2024-02-14T17:59:06;8.10;;;2.60;;
34541;SDS011;20784;51.332;12.410;2024-02-14T18:01:32;4.88;;;2.28;;
34541;SDS011;20784;51.332;12.410;2024-02-14T18:12:39;4.45;;;2.38;;
34541;SDS011;20784;51.332;12.410;2024-02-14T18:15:05;5.72;;;2.60;;
34541;SDS011;20784;51.332;12.410;2024-02-14T18:18:02;4.35;;;2.30;;
34541;SDS011;20784;51.332;12.410;2024-02-14T18:21:10;3.60;;;2.50;;
34541;SDS011;20784;51.332;12.410;2024-02-14T18:23:39;7.32;;;2.70;;
34541;SDS011;20784;51.332;12.410;2024-02-14T18:26:05;5.40;;;2.60;;
34541;SDS011;20784;51.332;12.410;2024-02-14T18:28:33;5.63;;;2.80;;
34541;SDS011;20784;51.332;12.410;2024-02-14T18:31:02;3.80;;;2.80;;
34541;SDS011;20784;51.332;12.410;2024-02-14T18:33:41;3.22;;;2.30;;
34541;SDS011;20784;51.332;12.410;2024-02-14T18:36:06;6.68;;;2.35;;
34541;SDS011;20784;51.332;12.410;2024-02-14T18:38:33;5.55;;;2.90;;
34541;SDS011;20784;51.332;12.410;2024-02-14T18:40:59;4.40;;;2.63;;
34541;SDS011;20784;51.332;12.410;2024-02-14T18:43:28;5.90;;;2.78;;
34541;SDS011;20784;51.332;12.410;2024-02-14T18:45:57;4.13;;;2.75;;
34541;SDS011;20784;51.332;12.410;2024-02-14T18:48:23;3.90;;;2.38;;
34541;SDS011;20784;51.332;12.410;2024-02-14T18:50:50;5.32;;;2.42;;
34541;SDS011;20784;51.332;12.410;2024-02-14T18:53:15;6.13;;;2.38;;
34541;SDS011;20784;51.332;12.410;2024-02-14T18:55:44;8.43;;;3.15;;
34541;SDS011;20784;51.332;12.410;2024-02-14T18:58:09;4.95;;;2.53;;
34541;SDS011;20784;51.332;12.410;2024-02-14T19:00:35;6.72;;;2.80;;
34541;SDS011;20784;51.332;12.410;2024-02-14T19:03:01;6.25;;;2.58;;
34541;SDS011;20784;51.332;12.410;2024-02-14T19:05:28;4.85;;;2.75;;